sensor_id;sensor_type;location;lat;lon;timestamp;P1;durP1;ratioP1;P2;durP2;ratioP2
23119;SDS011;11729;50.836;4.330;2022-12-07T00:01:39;32.17;;;25.55;;
23119;SDS011;11729;50.836;4.330;2022-12-07T00:04:03;32.72;;;27.00;;
23119;SDS011;11729;50.836;4.330;2022-12-07T00:06:37;39.50;;;26.67;;
23119;SDS011;11729;50.836;4.330;2022-12-07T00:09:09;35.92;;;26.85;;
23119;SDS011;11729;50.836;4.330;2022-12-07T00:11:36;34.95;;;26.45;;
23119;SDS011;11729;50.836;4.330;2022-12-07T00:14:03;34.58;;;27.13;;
23119;SDS011;11729;50.836;4.330;2022-12-07T00:16:31;37.60;;;25.83;;
23119;SDS011;11729;50.836;4.330;2022-12-07T00:19:00;39.88;;;26.90;;
23119;SDS011;11729;50.836;4.330;2022-12-07T00:21:40;38.08;;;27.58;;
23119;SDS011;11729;50.836;4.330;2022-12-07T00:24:06;41.97;;;27.65;;
23119;SDS011;11729;50.836;4.330;2022-12-07T00:26:36;37.75;;;28.02;;
23119;SDS011;11729;50.836;4.330;2022-12-07T00:29:04;37.63;;;28.73;;
23119;SDS011;11729;50.836;4.330;2022-12-07T00:31:33;35.63;;;28.20;;
23119;SDS011;11729;50.836;4.330;2022-12-07T00:34:03;42.25;;;29.35;;
23119;SDS011;11729;50.836;4.330;2022-12-07T00:36:36;44.47;;;29.30;;
23119;SDS011;11729;50.836;4.330;2022-12-07T00:39:02;41.75;;;31.00;;
23119;SDS011;11729;50.836;4.330;2022-12-07T00:41:28;40.53;;;28.25;;
23119;SDS011;11729;50.836;4.330;2022-12-07T00:43:55;41.50;;;30.63;;
23119;SDS011;11729;50.836;4.330;2022-12-07T00:46:22;42.65;;;29.98;;
23119;SDS011;11729;50.836;4.330;2022-12-07T00:48:49;44.05;;;29.73;;
23119;SDS011;11729;50.836;4.330;2022-12-07T00:51:16;40.92;;;30.15;;
23119;SDS011;11729;50.836;4.330;2022-12-07T00:53:43;46.60;;;29.92;;
23119;SDS011;11729;50.836;4.330;2022-12-07T00:56:11;43.13;;;30.23;;
23119;SDS011;11729;50.836;4.330;2022-12-07T00:58:39;41.10;;;29.65;;
23119;SDS011;11729;50.836;4.330;2022-12-07T01:01:06;43.17;;;30.45;;
23119;SDS011;11729;50.836;4.330;2022-12-07T01:03:33;43.10;;;30.45;;
23119;SDS011;11729;50.836;4.330;2022-12-07T01:06:00;44.90;;;31.42;;
23119;SDS011;11729;50.836;4.330;2022-12-07T01:08:26;51.42;;;34.45;;
23119;SDS011;11729;50.836;4.330;2022-12-07T01:10:59;50.40;;;34.83;;
23119;SDS011;11729;50.836;4.330;2022-12-07T01:13:27;47.40;;;31.63;;
23119;SDS011;11729;50.836;4.330;2022-12-07T01:15:56;41.65;;;31.58;;
23119;SDS011;11729;50.836;4.330;2022-12-07T01:18:26;39.95;;;31.10;;
23119;SDS011;11729;50.836;4.330;2022-12-07T01:21:03;36.75;;;28.55;;
23119;SDS011;11729;50.836;4.330;2022-12-07T01:23:31;38.60;;;31.27;;
23119;SDS011;11729;50.836;4.330;2022-12-07T01:25:57;41.67;;;31.00;;
23119;SDS011;11729;50.836;4.330;2022-12-07T01:28:25;43.85;;;30.38;;
23119;SDS011;11729;50.836;4.330;2022-12-07T01:31:10;43.42;;;32.67;;
23119;SDS011;11729;50.836;4.330;2022-12-07T01:33:41;45.92;;;32.70;;
23119;SDS011;11729;50.836;4.330;2022-12-07T01:36:12;41.93;;;30.77;;
23119;SDS011;11729;50.836;4.330;2022-12-07T01:38:38;48.20;;;32.42;;
23119;SDS011;11729;50.836;4.330;2022-12-07T01:41:04;45.47;;;32.00;;
23119;SDS011;11729;50.836;4.330;2022-12-07T01:43:31;44.58;;;32.55;;
23119;SDS011;11729;50.836;4.330;2022-12-07T01:45:58;45.10;;;32.85;;
23119;SDS011;11729;50.836;4.330;2022-12-07T01:48:28;51.20;;;33.83;;
23119;SDS011;11729;50.836;4.330;2022-12-07T01:51:00;50.67;;;33.08;;
23119;SDS011;11729;50.836;4.330;2022-12-07T01:53:29;48.28;;;32.83;;
23119;SDS011;11729;50.836;4.330;2022-12-07T01:55:56;50.67;;;33.35;;
23119;SDS011;11729;50.836;4.330;2022-12-07T01:58:24;46.30;;;33.10;;
23119;SDS011;11729;50.836;4.330;2022-12-07T02:00:50;48.33;;;33.53;;
23119;SDS011;11729;50.836;4.330;2022-12-07T02:03:27;54.58;;;34.70;;
23119;SDS011;11729;50.836;4.330;2022-12-07T02:05:57;44.38;;;33.85;;
23119;SDS011;11729;50.836;4.330;2022-12-07T02:08:26;49.47;;;33.20;;
23119;SDS011;11729;50.836;4.330;2022-12-07T02:10:52;46.97;;;33.47;;
23119;SDS011;11729;50.836;4.330;2022-12-07T02:13:19;47.53;;;33.38;;
23119;SDS011;11729;50.836;4.330;2022-12-07T02:21:03;49.83;;;33.97;;
23119;SDS011;11729;50.836;4.330;2022-12-07T02:26:44;45.83;;;32.63;;
23119;SDS011;11729;50.836;4.330;2022-12-07T02:31:56;44.08;;;31.70;;
23119;SDS011;11729;50.836;4.330;2022-12-07T02:37:37;44.53;;;31.92;;
23119;SDS011;11729;50.836;4.330;2022-12-07T02:40:04;41.83;;;32.92;;
23119;SDS011;11729;50.836;4.330;2022-12-07T02:42:37;47.15;;;33.22;;
23119;SDS011;11729;50.836;4.330;2022-12-07T02:45:06;46.92;;;31.58;;
23119;SDS011;11729;50.836;4.330;2022-12-07T02:47:33;45.50;;;32.67;;
23119;SDS011;11729;50.836;4.330;2022-12-07T02:50:03;43.40;;;34.05;;
23119;SDS011;11729;50.836;4.330;2022-12-07T02:52:30;49.88;;;33.85;;
23119;SDS011;11729;50.836;4.330;2022-12-07T02:55:01;46.25;;;33.55;;
23119;SDS011;11729;50.836;4.330;2022-12-07T03:00:11;47.75;;;32.35;;
23119;SDS011;11729;50.836;4.330;2022-12-07T03:18:15;42.78;;;31.30;;
23119;SDS011;11729;50.836;4.330;2022-12-07T03:20:43;38.05;;;31.13;;
23119;SDS011;11729;50.836;4.330;2022-12-07T03:23:10;42.42;;;32.00;;
23119;SDS011;11729;50.836;4.330;2022-12-07T03:25:39;39.67;;;32.53;;
23119;SDS011;11729;50.836;4.330;2022-12-07T03:28:07;51.50;;;32.53;;
23119;SDS011;11729;50.836;4.330;2022-12-07T03:30:42;43.45;;;31.85;;
23119;SDS011;11729;50.836;4.330;2022-12-07T03:33:28;41.03;;;31.73;;
23119;SDS011;11729;50.836;4.330;2022-12-07T03:36:04;46.97;;;31.80;;
23119;SDS011;11729;50.836;4.330;2022-12-07T03:38:42;45.20;;;31.48;;
23119;SDS011;11729;50.836;4.330;2022-12-07T03:41:19;46.35;;;32.53;;
23119;SDS011;11729;50.836;4.330;2022-12-07T03:43:51;43.55;;;32.95;;
23119;SDS011;11729;50.836;4.330;2022-12-07T03:49:19;50.45;;;33.42;;
23119;SDS011;11729;50.836;4.330;2022-12-07T03:57:19;44.78;;;32.75;;
23119;SDS011;11729;50.836;4.330;2022-12-07T03:59:47;40.97;;;33.17;;
23119;SDS011;11729;50.836;4.330;2022-12-07T04:02:13;49.15;;;32.42;;
23119;SDS011;11729;50.836;4.330;2022-12-07T04:04:40;44.33;;;32.58;;
23119;SDS011;11729;50.836;4.330;2022-12-07T04:07:08;47.07;;;32.60;;
23119;SDS011;11729;50.836;4.330;2022-12-07T04:09:34;48.13;;;31.95;;
23119;SDS011;11729;50.836;4.330;2022-12-07T04:11:59;47.63;;;33.58;;
23119;SDS011;11729;50.836;4.330;2022-12-07T04:14:25;48.30;;;33.33;;
23119;SDS011;11729;50.836;4.330;2022-12-07T04:16:52;50.25;;;33.03;;
23119;SDS011;11729;50.836;4.330;2022-12-07T04:19:23;51.33;;;33.35;;
23119;SDS011;11729;50.836;4.330;2022-12-07T04:21:50;48.08;;;32.35;;
23119;SDS011;11729;50.836;4.330;2022-12-07T04:24:16;47.28;;;32.10;;
23119;SDS011;11729;50.836;4.330;2022-12-07T04:26:42;52.45;;;35.10;;
23119;SDS011;11729;50.836;4.330;2022-12-07T04:29:10;52.95;;;35.42;;
23119;SDS011;11729;50.836;4.330;2022-12-07T04:31:36;50.40;;;35.22;;
23119;SDS011;11729;50.836;4.330;2022-12-07T04:34:03;52.88;;;35.60;;
23119;SDS011;11729;50.836;4.330;2022-12-07T04:36:29;54.58;;;36.33;;
23119;SDS011;11729;50.836;4.330;2022-12-07T04:38:55;54.33;;;35.65;;
23119;SDS011;11729;50.836;4.330;2022-12-07T04:41:21;55.22;;;36.78;;
23119;SDS011;11729;50.836;4.330;2022-12-07T04:43:55;52.55;;;35.67;;
23119;SDS011;11729;50.836;4.330;2022-12-07T04:46:22;58.55;;;36.40;;
23119;SDS011;11729;50.836;4.330;2022-12-07T04:48:49;55.08;;;35.78;;
23119;SDS011;11729;50.836;4.330;2022-12-07T04:51:22;54.33;;;37.85;;
23119;SDS011;11729;50.836;4.330;2022-12-07T04:53:59;57.38;;;37.83;;
23119;SDS011;11729;50.836;4.330;2022-12-07T04:56:25;53.55;;;37.05;;
23119;SDS011;11729;50.836;4.330;2022-12-07T04:58:51;60.83;;;38.55;;
23119;SDS011;11729;50.836;4.330;2022-12-07T05:01:19;54.88;;;38.05;;
23119;SDS011;11729;50.836;4.330;2022-12-07T05:03:45;50.53;;;37.97;;
23119;SDS011;11729;50.836;4.330;2022-12-07T05:06:11;55.25;;;36.25;;
23119;SDS011;11729;50.836;4.330;2022-12-07T05:08:40;50.20;;;36.42;;
23119;SDS011;11729;50.836;4.330;2022-12-07T05:11:08;48.55;;;35.35;;
23119;SDS011;11729;50.836;4.330;2022-12-07T05:13:35;52.50;;;36.42;;
23119;SDS011;11729;50.836;4.330;2022-12-07T05:16:01;59.67;;;36.15;;
23119;SDS011;11729;50.836;4.330;2022-12-07T05:18:33;49.75;;;35.65;;
23119;SDS011;11729;50.836;4.330;2022-12-07T05:20:59;52.35;;;38.08;;
23119;SDS011;11729;50.836;4.330;2022-12-07T05:23:24;55.10;;;36.50;;
23119;SDS011;11729;50.836;4.330;2022-12-07T05:25:50;49.90;;;34.97;;
23119;SDS011;11729;50.836;4.330;2022-12-07T05:28:16;57.83;;;37.30;;
23119;SDS011;11729;50.836;4.330;2022-12-07T05:30:43;50.80;;;36.72;;
23119;SDS011;11729;50.836;4.330;2022-12-07T05:33:09;53.47;;;36.17;;
23119;SDS011;11729;50.836;4.330;2022-12-07T05:35:34;54.78;;;37.13;;
23119;SDS011;11729;50.836;4.330;2022-12-07T05:38:02;54.20;;;37.78;;
23119;SDS011;11729;50.836;4.330;2022-12-07T05:40:30;61.35;;;39.60;;
23119;SDS011;11729;50.836;4.330;2022-12-07T05:42:55;60.13;;;39.88;;
23119;SDS011;11729;50.836;4.330;2022-12-07T05:45:23;58.35;;;37.72;;
23119;SDS011;11729;50.836;4.330;2022-12-07T05:47:54;50.22;;;36.75;;
23119;SDS011;11729;50.836;4.330;2022-12-07T05:50:20;59.55;;;38.58;;
23119;SDS011;11729;50.836;4.330;2022-12-07T05:52:47;56.53;;;38.30;;
23119;SDS011;11729;50.836;4.330;2022-12-07T05:55:20;56.97;;;36.97;;
23119;SDS011;11729;50.836;4.330;2022-12-07T05:57:46;58.70;;;38.20;;
23119;SDS011;11729;50.836;4.330;2022-12-07T06:00:33;53.55;;;35.72;;
23119;SDS011;11729;50.836;4.330;2022-12-07T06:03:02;52.22;;;37.13;;
23119;SDS011;11729;50.836;4.330;2022-12-07T06:05:28;63.88;;;40.05;;
23119;SDS011;11729;50.836;4.330;2022-12-07T06:07:54;61.22;;;39.55;;
23119;SDS011;11729;50.836;4.330;2022-12-07T06:10:19;59.88;;;39.55;;
23119;SDS011;11729;50.836;4.330;2022-12-07T06:12:47;54.88;;;37.35;;
23119;SDS011;11729;50.836;4.330;2022-12-07T06:15:12;54.67;;;38.55;;
23119;SDS011;11729;50.836;4.330;2022-12-07T06:17:40;58.67;;;37.58;;
23119;SDS011;11729;50.836;4.330;2022-12-07T06:20:06;53.42;;;36.97;;
23119;SDS011;11729;50.836;4.330;2022-12-07T06:22:32;49.83;;;37.00;;
23119;SDS011;11729;50.836;4.330;2022-12-07T06:24:57;56.85;;;37.92;;
23119;SDS011;11729;50.836;4.330;2022-12-07T06:27:24;62.78;;;38.03;;
23119;SDS011;11729;50.836;4.330;2022-12-07T06:29:49;52.08;;;35.35;;
23119;SDS011;11729;50.836;4.330;2022-12-07T06:32:16;53.13;;;36.42;;
23119;SDS011;11729;50.836;4.330;2022-12-07T06:34:43;56.30;;;38.47;;
23119;SDS011;11729;50.836;4.330;2022-12-07T06:37:08;57.08;;;37.13;;
23119;SDS011;11729;50.836;4.330;2022-12-07T06:39:35;59.53;;;37.00;;
23119;SDS011;11729;50.836;4.330;2022-12-07T06:42:01;57.15;;;36.20;;
23119;SDS011;11729;50.836;4.330;2022-12-07T06:44:27;50.53;;;35.42;;
23119;SDS011;11729;50.836;4.330;2022-12-07T06:46:53;48.22;;;36.08;;
23119;SDS011;11729;50.836;4.330;2022-12-07T06:49:19;51.72;;;36.05;;
23119;SDS011;11729;50.836;4.330;2022-12-07T06:51:44;52.53;;;36.00;;
23119;SDS011;11729;50.836;4.330;2022-12-07T06:54:10;53.55;;;35.83;;
23119;SDS011;11729;50.836;4.330;2022-12-07T06:56:39;54.75;;;36.85;;
23119;SDS011;11729;50.836;4.330;2022-12-07T06:59:05;50.53;;;35.53;;
23119;SDS011;11729;50.836;4.330;2022-12-07T07:01:32;51.78;;;35.78;;
23119;SDS011;11729;50.836;4.330;2022-12-07T07:03:59;55.42;;;37.00;;
23119;SDS011;11729;50.836;4.330;2022-12-07T07:06:25;51.35;;;35.47;;
23119;SDS011;11729;50.836;4.330;2022-12-07T07:08:50;50.15;;;33.60;;
23119;SDS011;11729;50.836;4.330;2022-12-07T07:11:16;54.72;;;33.38;;
23119;SDS011;11729;50.836;4.330;2022-12-07T07:13:42;53.25;;;34.42;;
23119;SDS011;11729;50.836;4.330;2022-12-07T07:16:07;48.50;;;34.10;;
23119;SDS011;11729;50.836;4.330;2022-12-07T07:18:33;45.65;;;32.90;;
23119;SDS011;11729;50.836;4.330;2022-12-07T07:20:59;46.03;;;35.10;;
23119;SDS011;11729;50.836;4.330;2022-12-07T07:23:26;54.53;;;35.80;;
23119;SDS011;11729;50.836;4.330;2022-12-07T07:25:51;52.78;;;37.20;;
23119;SDS011;11729;50.836;4.330;2022-12-07T07:28:17;54.38;;;37.13;;
23119;SDS011;11729;50.836;4.330;2022-12-07T07:30:43;55.08;;;36.78;;
23119;SDS011;11729;50.836;4.330;2022-12-07T07:33:10;51.75;;;36.70;;
23119;SDS011;11729;50.836;4.330;2022-12-07T07:35:36;57.75;;;37.17;;
23119;SDS011;11729;50.836;4.330;2022-12-07T07:38:02;54.15;;;36.63;;
23119;SDS011;11729;50.836;4.330;2022-12-07T07:40:28;70.15;;;42.80;;
23119;SDS011;11729;50.836;4.330;2022-12-07T07:42:54;73.50;;;44.35;;
23119;SDS011;11729;50.836;4.330;2022-12-07T07:45:21;57.90;;;38.88;;
23119;SDS011;11729;50.836;4.330;2022-12-07T07:47:48;52.53;;;37.22;;
23119;SDS011;11729;50.836;4.330;2022-12-07T07:50:14;55.72;;;36.88;;
23119;SDS011;11729;50.836;4.330;2022-12-07T07:52:41;56.50;;;37.50;;
23119;SDS011;11729;50.836;4.330;2022-12-07T07:55:07;51.72;;;37.25;;
23119;SDS011;11729;50.836;4.330;2022-12-07T07:57:33;53.03;;;38.40;;
23119;SDS011;11729;50.836;4.330;2022-12-07T08:00:03;57.00;;;38.08;;
23119;SDS011;11729;50.836;4.330;2022-12-07T08:02:30;56.42;;;38.95;;
23119;SDS011;11729;50.836;4.330;2022-12-07T08:04:56;60.55;;;38.58;;
23119;SDS011;11729;50.836;4.330;2022-12-07T08:07:22;55.75;;;36.55;;
23119;SDS011;11729;50.836;4.330;2022-12-07T08:09:48;57.55;;;36.72;;
23119;SDS011;11729;50.836;4.330;2022-12-07T08:12:14;51.78;;;35.17;;
23119;SDS011;11729;50.836;4.330;2022-12-07T08:14:39;51.75;;;34.70;;
23119;SDS011;11729;50.836;4.330;2022-12-07T08:17:05;47.88;;;33.13;;
23119;SDS011;11729;50.836;4.330;2022-12-07T08:19:30;53.72;;;34.28;;
23119;SDS011;11729;50.836;4.330;2022-12-07T08:21:56;50.95;;;34.97;;
23119;SDS011;11729;50.836;4.330;2022-12-07T08:24:22;54.58;;;37.28;;
23119;SDS011;11729;50.836;4.330;2022-12-07T08:26:48;73.15;;;45.75;;
23119;SDS011;11729;50.836;4.330;2022-12-07T08:29:15;63.47;;;39.88;;
23119;SDS011;11729;50.836;4.330;2022-12-07T08:31:40;64.00;;;41.03;;
23119;SDS011;11729;50.836;4.330;2022-12-07T08:34:06;55.90;;;38.53;;
23119;SDS011;11729;50.836;4.330;2022-12-07T08:36:32;57.85;;;39.05;;
23119;SDS011;11729;50.836;4.330;2022-12-07T08:39:00;57.30;;;37.97;;
23119;SDS011;11729;50.836;4.330;2022-12-07T08:41:25;62.17;;;39.60;;
23119;SDS011;11729;50.836;4.330;2022-12-07T08:43:51;61.33;;;39.53;;
23119;SDS011;11729;50.836;4.330;2022-12-07T08:46:21;60.00;;;38.03;;
23119;SDS011;11729;50.836;4.330;2022-12-07T08:48:54;55.03;;;38.35;;
23119;SDS011;11729;50.836;4.330;2022-12-07T08:51:23;55.75;;;37.10;;
23119;SDS011;11729;50.836;4.330;2022-12-07T08:53:50;54.72;;;37.78;;
23119;SDS011;11729;50.836;4.330;2022-12-07T08:56:17;58.28;;;37.72;;
23119;SDS011;11729;50.836;4.330;2022-12-07T08:58:44;47.70;;;35.28;;
23119;SDS011;11729;50.836;4.330;2022-12-07T09:01:11;44.85;;;33.72;;
23119;SDS011;11729;50.836;4.330;2022-12-07T09:03:38;50.83;;;35.67;;
23119;SDS011;11729;50.836;4.330;2022-12-07T09:06:04;49.60;;;34.95;;
23119;SDS011;11729;50.836;4.330;2022-12-07T09:08:31;53.15;;;33.05;;
23119;SDS011;11729;50.836;4.330;2022-12-07T09:11:02;42.88;;;31.98;;
23119;SDS011;11729;50.836;4.330;2022-12-07T09:13:28;46.58;;;32.15;;
23119;SDS011;11729;50.836;4.330;2022-12-07T09:15:54;50.95;;;33.55;;
23119;SDS011;11729;50.836;4.330;2022-12-07T09:18:19;57.58;;;34.20;;
23119;SDS011;11729;50.836;4.330;2022-12-07T09:20:45;43.63;;;29.98;;
23119;SDS011;11729;50.836;4.330;2022-12-07T09:23:11;40.33;;;29.42;;
23119;SDS011;11729;50.836;4.330;2022-12-07T09:25:36;48.78;;;33.55;;
23119;SDS011;11729;50.836;4.330;2022-12-07T09:28:02;59.13;;;40.75;;
23119;SDS011;11729;50.836;4.330;2022-12-07T09:30:29;47.88;;;34.03;;
23119;SDS011;11729;50.836;4.330;2022-12-07T09:32:58;44.95;;;31.02;;
23119;SDS011;11729;50.836;4.330;2022-12-07T09:35:24;39.63;;;27.08;;
23119;SDS011;11729;50.836;4.330;2022-12-07T09:37:50;42.10;;;26.55;;
23119;SDS011;11729;50.836;4.330;2022-12-07T09:40:16;34.90;;;26.00;;
23119;SDS011;11729;50.836;4.330;2022-12-07T09:42:44;32.33;;;25.30;;
23119;SDS011;11729;50.836;4.330;2022-12-07T09:45:34;37.22;;;24.33;;
23119;SDS011;11729;50.836;4.330;2022-12-07T09:48:04;35.65;;;24.13;;
23119;SDS011;11729;50.836;4.330;2022-12-07T09:50:31;28.52;;;22.77;;
23119;SDS011;11729;50.836;4.330;2022-12-07T09:53:39;28.23;;;21.38;;
23119;SDS011;11729;50.836;4.330;2022-12-07T09:55:48;31.77;;;20.98;;
23119;SDS011;11729;50.836;4.330;2022-12-07T09:58:23;25.60;;;19.65;;
23119;SDS011;11729;50.836;4.330;2022-12-07T10:00:57;28.90;;;21.17;;
23119;SDS011;11729;50.836;4.330;2022-12-07T10:03:28;25.55;;;19.58;;
23119;SDS011;11729;50.836;4.330;2022-12-07T10:05:54;24.85;;;18.77;;
23119;SDS011;11729;50.836;4.330;2022-12-07T10:08:22;29.42;;;19.25;;
23119;SDS011;11729;50.836;4.330;2022-12-07T10:10:51;24.38;;;17.95;;
23119;SDS011;11729;50.836;4.330;2022-12-07T10:14:09;23.05;;;17.67;;
23119;SDS011;11729;50.836;4.330;2022-12-07T10:16:26;24.30;;;18.30;;
23119;SDS011;11729;50.836;4.330;2022-12-07T10:18:57;30.55;;;17.63;;
23119;SDS011;11729;50.836;4.330;2022-12-07T10:24:38;23.98;;;16.38;;
23119;SDS011;11729;50.836;4.330;2022-12-07T10:29:58;28.80;;;18.80;;
23119;SDS011;11729;50.836;4.330;2022-12-07T10:32:34;29.33;;;19.75;;
23119;SDS011;11729;50.836;4.330;2022-12-07T10:37:46;24.15;;;15.25;;
23119;SDS011;11729;50.836;4.330;2022-12-07T10:40:34;27.98;;;16.17;;
23119;SDS011;11729;50.836;4.330;2022-12-07T10:46:26;22.27;;;15.40;;
23119;SDS011;11729;50.836;4.330;2022-12-07T10:54:17;20.95;;;15.07;;
23119;SDS011;11729;50.836;4.330;2022-12-07T11:10:13;19.25;;;10.40;;
23119;SDS011;11729;50.836;4.330;2022-12-07T11:12:50;15.00;;;9.90;;
23119;SDS011;11729;50.836;4.330;2022-12-07T11:21:33;15.95;;;9.35;;
23119;SDS011;11729;50.836;4.330;2022-12-07T11:24:10;12.85;;;9.57;;
23119;SDS011;11729;50.836;4.330;2022-12-07T11:35:09;19.92;;;9.55;;
23119;SDS011;11729;50.836;4.330;2022-12-07T11:37:43;15.68;;;9.00;;
23119;SDS011;11729;50.836;4.330;2022-12-07T11:40:14;17.40;;;9.23;;
23119;SDS011;11729;50.836;4.330;2022-12-07T11:43:04;17.52;;;9.68;;
23119;SDS011;11729;50.836;4.330;2022-12-07T11:45:31;16.75;;;9.55;;
23119;SDS011;11729;50.836;4.330;2022-12-07T11:53:20;17.05;;;10.20;;
23119;SDS011;11729;50.836;4.330;2022-12-07T11:56:11;17.13;;;9.68;;
23119;SDS011;11729;50.836;4.330;2022-12-07T12:03:51;17.02;;;10.93;;
23119;SDS011;11729;50.836;4.330;2022-12-07T12:06:20;13.70;;;9.45;;
23119;SDS011;11729;50.836;4.330;2022-12-07T12:17:34;11.35;;;7.82;;
23119;SDS011;11729;50.836;4.330;2022-12-07T12:25:30;8.85;;;7.00;;
23119;SDS011;11729;50.836;4.330;2022-12-07T12:28:17;12.32;;;7.28;;
23119;SDS011;11729;50.836;4.330;2022-12-07T12:31:07;14.63;;;7.03;;
23119;SDS011;11729;50.836;4.330;2022-12-07T12:33:37;9.93;;;7.00;;
23119;SDS011;11729;50.836;4.330;2022-12-07T12:38:49;17.77;;;7.78;;
23119;SDS011;11729;50.836;4.330;2022-12-07T12:51:57;11.25;;;7.47;;
23119;SDS011;11729;50.836;4.330;2022-12-07T12:54:28;11.35;;;7.43;;
23119;SDS011;11729;50.836;4.330;2022-12-07T13:02:22;8.65;;;6.90;;
23119;SDS011;11729;50.836;4.330;2022-12-07T13:10:44;11.77;;;6.80;;
23119;SDS011;11729;50.836;4.330;2022-12-07T13:26:21;9.77;;;7.80;;
23119;SDS011;11729;50.836;4.330;2022-12-07T13:34:00;12.85;;;7.90;;
23119;SDS011;11729;50.836;4.330;2022-12-07T13:36:32;12.85;;;7.88;;
23119;SDS011;11729;50.836;4.330;2022-12-07T13:41:42;14.18;;;8.57;;
23119;SDS011;11729;50.836;4.330;2022-12-07T13:44:10;15.80;;;9.98;;
23119;SDS011;11729;50.836;4.330;2022-12-07T13:49:15;12.88;;;8.90;;
23119;SDS011;11729;50.836;4.330;2022-12-07T13:51:52;8.43;;;7.20;;
23119;SDS011;11729;50.836;4.330;2022-12-07T13:54:20;14.98;;;7.95;;
23119;SDS011;11729;50.836;4.330;2022-12-07T13:56:51;13.10;;;8.13;;
23119;SDS011;11729;50.836;4.330;2022-12-07T13:59:21;9.00;;;7.40;;
23119;SDS011;11729;50.836;4.330;2022-12-07T14:01:50;10.50;;;7.32;;
23119;SDS011;11729;50.836;4.330;2022-12-07T14:06:56;12.43;;;7.55;;
23119;SDS011;11729;50.836;4.330;2022-12-07T14:09:23;7.85;;;6.93;;
23119;SDS011;11729;50.836;4.330;2022-12-07T14:11:50;11.38;;;7.00;;
23119;SDS011;11729;50.836;4.330;2022-12-07T14:14:28;10.82;;;7.50;;
23119;SDS011;11729;50.836;4.330;2022-12-07T14:17:00;11.07;;;7.25;;
23119;SDS011;11729;50.836;4.330;2022-12-07T14:24:50;11.23;;;6.95;;
23119;SDS011;11729;50.836;4.330;2022-12-07T14:27:23;8.90;;;7.05;;
23119;SDS011;11729;50.836;4.330;2022-12-07T14:29:55;10.82;;;7.00;;
23119;SDS011;11729;50.836;4.330;2022-12-07T14:32:23;11.98;;;7.63;;
23119;SDS011;11729;50.836;4.330;2022-12-07T14:35:01;14.63;;;7.30;;
23119;SDS011;11729;50.836;4.330;2022-12-07T14:37:35;9.55;;;7.10;;
23119;SDS011;11729;50.836;4.330;2022-12-07T14:40:02;8.55;;;6.72;;
23119;SDS011;11729;50.836;4.330;2022-12-07T14:42:29;7.28;;;6.40;;
23119;SDS011;11729;50.836;4.330;2022-12-07T14:44:56;11.32;;;6.65;;
23119;SDS011;11729;50.836;4.330;2022-12-07T14:47:22;9.20;;;7.03;;
23119;SDS011;11729;50.836;4.330;2022-12-07T14:49:48;8.20;;;6.72;;
23119;SDS011;11729;50.836;4.330;2022-12-07T14:52:18;12.48;;;7.75;;
23119;SDS011;11729;50.836;4.330;2022-12-07T14:54:46;13.82;;;7.97;;
23119;SDS011;11729;50.836;4.330;2022-12-07T14:57:12;12.80;;;8.02;;
23119;SDS011;11729;50.836;4.330;2022-12-07T14:59:38;12.63;;;8.00;;
23119;SDS011;11729;50.836;4.330;2022-12-07T15:02:04;10.80;;;8.55;;
23119;SDS011;11729;50.836;4.330;2022-12-07T15:04:30;12.20;;;8.10;;
23119;SDS011;11729;50.836;4.330;2022-12-07T15:06:59;10.07;;;7.90;;
23119;SDS011;11729;50.836;4.330;2022-12-07T15:09:26;13.15;;;7.70;;
23119;SDS011;11729;50.836;4.330;2022-12-07T15:11:52;13.60;;;7.38;;
23119;SDS011;11729;50.836;4.330;2022-12-07T15:14:18;12.57;;;7.32;;
23119;SDS011;11729;50.836;4.330;2022-12-07T15:16:43;11.15;;;7.70;;
23119;SDS011;11729;50.836;4.330;2022-12-07T15:19:13;12.35;;;8.32;;
23119;SDS011;11729;50.836;4.330;2022-12-07T15:21:43;12.95;;;7.97;;
23119;SDS011;11729;50.836;4.330;2022-12-07T15:24:10;17.35;;;8.23;;
23119;SDS011;11729;50.836;4.330;2022-12-07T15:26:37;17.73;;;8.00;;
23119;SDS011;11729;50.836;4.330;2022-12-07T15:29:03;11.95;;;8.05;;
23119;SDS011;11729;50.836;4.330;2022-12-07T15:31:29;12.75;;;8.38;;
23119;SDS011;11729;50.836;4.330;2022-12-07T15:33:55;9.63;;;8.43;;
23119;SDS011;11729;50.836;4.330;2022-12-07T15:36:22;19.58;;;9.02;;
23119;SDS011;11729;50.836;4.330;2022-12-07T15:38:50;15.20;;;9.10;;
23119;SDS011;11729;50.836;4.330;2022-12-07T15:41:16;15.73;;;9.15;;
23119;SDS011;11729;50.836;4.330;2022-12-07T15:43:42;11.23;;;9.40;;
23119;SDS011;11729;50.836;4.330;2022-12-07T15:46:31;13.38;;;9.68;;
23119;SDS011;11729;50.836;4.330;2022-12-07T15:49:10;17.92;;;9.77;;
23119;SDS011;11729;50.836;4.330;2022-12-07T15:51:45;20.67;;;10.02;;
23119;SDS011;11729;50.836;4.330;2022-12-07T15:54:27;24.48;;;10.55;;
23119;SDS011;11729;50.836;4.330;2022-12-07T15:56:55;13.63;;;10.32;;
23119;SDS011;11729;50.836;4.330;2022-12-07T15:59:21;16.80;;;10.38;;
23119;SDS011;11729;50.836;4.330;2022-12-07T16:01:47;17.25;;;10.27;;
23119;SDS011;11729;50.836;4.330;2022-12-07T16:04:13;13.95;;;10.23;;
23119;SDS011;11729;50.836;4.330;2022-12-07T16:06:39;15.65;;;10.07;;
23119;SDS011;11729;50.836;4.330;2022-12-07T16:09:04;15.82;;;10.40;;
23119;SDS011;11729;50.836;4.330;2022-12-07T16:11:31;21.00;;;11.00;;
23119;SDS011;11729;50.836;4.330;2022-12-07T16:13:57;26.85;;;13.80;;
23119;SDS011;11729;50.836;4.330;2022-12-07T16:16:22;29.20;;;14.32;;
23119;SDS011;11729;50.836;4.330;2022-12-07T16:18:48;17.35;;;12.52;;
23119;SDS011;11729;50.836;4.330;2022-12-07T16:21:16;15.55;;;10.30;;
23119;SDS011;11729;50.836;4.330;2022-12-07T16:23:44;17.58;;;10.40;;
23119;SDS011;11729;50.836;4.330;2022-12-07T16:26:11;16.90;;;11.38;;
23119;SDS011;11729;50.836;4.330;2022-12-07T16:28:38;17.23;;;11.00;;
23119;SDS011;11729;50.836;4.330;2022-12-07T16:31:05;17.63;;;10.80;;
23119;SDS011;11729;50.836;4.330;2022-12-07T16:33:33;19.85;;;12.65;;
23119;SDS011;11729;50.836;4.330;2022-12-07T16:36:00;14.07;;;11.83;;
23119;SDS011;11729;50.836;4.330;2022-12-07T16:38:26;19.58;;;12.48;;
23119;SDS011;11729;50.836;4.330;2022-12-07T16:40:52;19.75;;;12.10;;
23119;SDS011;11729;50.836;4.330;2022-12-07T16:43:18;20.75;;;11.25;;
23119;SDS011;11729;50.836;4.330;2022-12-07T16:45:45;16.60;;;11.50;;
23119;SDS011;11729;50.836;4.330;2022-12-07T16:48:12;17.75;;;11.80;;
23119;SDS011;11729;50.836;4.330;2022-12-07T16:50:39;13.50;;;10.95;;
23119;SDS011;11729;50.836;4.330;2022-12-07T16:53:06;11.40;;;10.10;;
23119;SDS011;11729;50.836;4.330;2022-12-07T16:55:43;17.63;;;11.30;;
23119;SDS011;11729;50.836;4.330;2022-12-07T16:58:10;13.98;;;10.43;;
23119;SDS011;11729;50.836;4.330;2022-12-07T17:00:38;19.57;;;11.60;;
23119;SDS011;11729;50.836;4.330;2022-12-07T17:03:05;14.63;;;11.70;;
23119;SDS011;11729;50.836;4.330;2022-12-07T17:05:31;13.13;;;10.80;;
23119;SDS011;11729;50.836;4.330;2022-12-07T17:07:58;15.90;;;11.05;;
23119;SDS011;11729;50.836;4.330;2022-12-07T17:10:26;15.85;;;11.52;;
23119;SDS011;11729;50.836;4.330;2022-12-07T17:12:51;14.18;;;10.75;;
23119;SDS011;11729;50.836;4.330;2022-12-07T17:15:17;14.00;;;11.23;;
23119;SDS011;11729;50.836;4.330;2022-12-07T17:17:50;12.90;;;11.65;;
23119;SDS011;11729;50.836;4.330;2022-12-07T17:20:18;19.17;;;12.93;;